createdAt,value
2023-05-19T00:01:10.672Z,9.15
2023-05-19T00:03:37.679Z,9.15
2023-05-19T00:06:05.081Z,11.25
2023-05-19T00:08:31.885Z,9.57
2023-05-19T00:10:58.766Z,7.88
2023-05-19T00:13:25.782Z,8.63
2023-05-19T00:15:52.972Z,9.30
2023-05-19T00:18:22.254Z,8.75
2023-05-19T00:20:49.321Z,8.52
2023-05-19T00:23:15.969Z,9.95
2023-05-19T00:25:42.584Z,8.55
2023-05-19T00:28:09.228Z,10.38
2023-05-19T00:30:35.870Z,9.23
2023-05-19T00:33:02.556Z,8.30
2023-05-19T00:35:29.279Z,7.47
2023-05-19T00:37:55.903Z,6.28
2023-05-19T00:40:23.664Z,7.68
2023-05-19T00:42:50.320Z,7.63
2023-05-19T00:45:16.973Z,6.85
2023-05-19T00:47:43.660Z,6.47
2023-05-19T00:50:10.500Z,8.88
2023-05-19T00:52:37.141Z,6.28
2023-05-19T00:55:04.047Z,8.13
2023-05-19T00:57:30.705Z,8.02
2023-05-19T00:59:57.349Z,8.95
2023-05-19T01:02:24.095Z,7.30
2023-05-19T01:04:50.823Z,6.63
2023-05-19T01:07:17.506Z,9.02
2023-05-19T01:09:44.605Z,9.30
2023-05-19T01:12:11.256Z,9.93
2023-05-19T01:14:37.906Z,8.27
2023-05-19T01:17:08.004Z,8.38
2023-05-19T01:22:48.735Z,10.10
2023-05-19T01:26:00.607Z,10.45
2023-05-19T01:29:11.637Z,8.57
2023-05-19T01:31:38.576Z,7.45
2023-05-19T01:34:06.785Z,8.82
2023-05-19T01:36:33.773Z,7.80
2023-05-19T01:39:02.184Z,9.70
2023-05-19T01:41:30.107Z,9.07
2023-05-19T01:43:57.042Z,9.35
2023-05-19T01:46:24.455Z,8.90
2023-05-19T01:48:52.411Z,7.68
2023-05-19T01:51:19.110Z,7.47
2023-05-19T01:53:45.800Z,7.72
2023-05-19T01:56:16.152Z,7.43
2023-05-19T01:58:47.902Z,7.70
2023-05-19T02:01:30.220Z,8.13
2023-05-19T02:04:28.107Z,7.10
2023-05-19T02:07:13.859Z,6.88
2023-05-19T02:10:01.226Z,6.65
2023-05-19T02:12:40.722Z,6.28
2023-05-19T02:15:22.090Z,7.28
2023-05-19T02:17:50.272Z,6.28
2023-05-19T02:20:17.549Z,6.70
2023-05-19T02:22:44.738Z,6.13
2023-05-19T02:25:11.503Z,7.20
2023-05-19T02:27:38.988Z,6.63
2023-05-19T02:30:06.870Z,6.88
2023-05-19T02:32:33.897Z,6.50
2023-05-19T02:35:00.598Z,7.30
2023-05-19T02:37:27.244Z,6.50
2023-05-19T02:39:54.311Z,6.93
2023-05-19T02:42:21.310Z,7.00
2023-05-19T02:44:48.243Z,7.55
2023-05-19T02:47:14.979Z,6.60
2023-05-19T02:49:41.635Z,6.63
2023-05-19T02:52:08.370Z,6.68
2023-05-19T02:54:35.112Z,7.18
2023-05-19T02:57:02.055Z,6.28
2023-05-19T02:59:28.786Z,7.10
2023-05-19T03:01:57.368Z,7.47
2023-05-19T03:04:24.031Z,6.88
2023-05-19T03:06:50.733Z,6.55
2023-05-19T03:09:17.473Z,6.78
2023-05-19T03:11:44.121Z,6.55
2023-05-19T03:14:10.762Z,6.68
2023-05-19T03:16:37.564Z,6.82
2023-05-19T03:19:04.328Z,6.22
2023-05-19T03:21:31.015Z,5.47
2023-05-19T03:23:57.666Z,6.00
2023-05-19T03:26:24.730Z,6.25
2023-05-19T03:28:51.400Z,6.15
2023-05-19T03:31:18.198Z,6.47
2023-05-19T03:33:44.887Z,5.78
2023-05-19T03:36:11.621Z,6.35
2023-05-19T03:38:38.253Z,6.03
2023-05-19T03:41:04.950Z,5.95
2023-05-19T03:43:31.594Z,6.90
2023-05-19T03:45:58.336Z,6.10
2023-05-19T03:48:25.050Z,5.93
2023-05-19T03:50:51.699Z,6.13
2023-05-19T03:53:18.384Z,6.45
2023-05-19T03:55:44.997Z,6.78
2023-05-19T03:58:11.657Z,6.88
2023-05-19T04:00:38.272Z,6.30
2023-05-19T04:03:05.009Z,6.68
2023-05-19T04:05:31.823Z,5.80
2023-05-19T04:07:58.449Z,7.43
2023-05-19T04:10:25.118Z,6.70
2023-05-19T04:12:51.763Z,6.30
2023-05-19T04:15:18.428Z,7.20
2023-05-19T04:17:45.141Z,6.85
2023-05-19T04:20:12.355Z,7.20
2023-05-19T04:22:39.002Z,6.93
2023-05-19T04:25:06.141Z,7.72
2023-05-19T04:27:32.789Z,7.03
2023-05-19T04:29:59.546Z,6.50
2023-05-19T04:32:26.256Z,6.90
2023-05-19T04:34:52.918Z,7.07
2023-05-19T04:37:19.580Z,6.88
2023-05-19T04:39:46.191Z,6.93
2023-05-19T04:42:12.839Z,7.03
2023-05-19T04:44:39.586Z,6.88
2023-05-19T04:47:09.326Z,7.03
2023-05-19T04:49:36.346Z,6.55
2023-05-19T04:52:02.973Z,6.78
2023-05-19T04:54:29.595Z,7.00
2023-05-19T04:56:56.237Z,6.65
2023-05-19T04:59:22.899Z,6.78
2023-05-19T05:01:49.668Z,6.70
2023-05-19T05:04:16.321Z,7.65
2023-05-19T05:06:42.930Z,6.95
2023-05-19T05:09:09.570Z,7.30
2023-05-19T05:11:36.561Z,6.70
2023-05-19T05:14:03.410Z,6.50
2023-05-19T05:16:30.343Z,6.10
2023-05-19T05:18:57.360Z,7.20
2023-05-19T05:21:24.372Z,6.50
2023-05-19T05:23:51.894Z,6.93
2023-05-19T05:26:19.629Z,6.97
2023-05-19T05:28:46.410Z,7.18
2023-05-19T05:31:13.047Z,6.07
2023-05-19T05:33:39.819Z,6.15
2023-05-19T05:36:06.955Z,5.88
2023-05-19T05:38:33.638Z,6.45
2023-05-19T05:41:00.296Z,6.70
2023-05-19T05:43:26.949Z,5.93
2023-05-19T05:45:53.644Z,5.35
2023-05-19T05:48:20.738Z,5.47
2023-05-19T05:50:48.522Z,5.78
2023-05-19T05:53:18.711Z,5.85
2023-05-19T05:58:12.842Z,5.03
2023-05-19T06:00:39.575Z,5.80
2023-05-19T06:03:06.452Z,5.10
2023-05-19T06:05:33.228Z,5.25
2023-05-19T06:07:59.905Z,5.22
2023-05-19T06:10:26.625Z,5.25
2023-05-19T06:12:53.364Z,5.70
2023-05-19T06:15:21.485Z,5.55
2023-05-19T06:17:48.393Z,5.53
2023-05-19T06:20:15.048Z,5.30
2023-05-19T06:22:41.724Z,5.17
2023-05-19T06:25:08.874Z,4.67
2023-05-19T06:27:35.810Z,4.90
2023-05-19T06:30:02.921Z,4.53
2023-05-19T06:32:29.651Z,4.20
2023-05-19T06:34:56.333Z,5.00
2023-05-19T06:37:23.416Z,4.10
2023-05-19T06:39:53.693Z,4.83
2023-05-19T06:42:20.749Z,4.57
2023-05-19T06:44:49.713Z,4.30
2023-05-19T06:47:17.318Z,4.30
2023-05-19T06:49:47.200Z,4.50
2023-05-19T06:54:40.512Z,4.87
2023-05-19T06:57:07.158Z,4.73
2023-05-19T06:59:33.793Z,3.80
2023-05-19T07:02:00.530Z,4.20
2023-05-19T07:04:27.434Z,4.40
2023-05-19T07:06:54.119Z,4.07
2023-05-19T07:09:20.833Z,4.23
2023-05-19T07:11:47.940Z,4.37
2023-05-19T07:14:14.612Z,4.50
2023-05-19T07:16:41.401Z,5.07
2023-05-19T07:19:08.230Z,4.27
2023-05-19T07:21:34.912Z,4.20
2023-05-19T07:24:01.560Z,4.43
2023-05-19T07:26:29.069Z,4.87
2023-05-19T07:28:55.954Z,4.73
2023-05-19T07:31:22.746Z,3.87
2023-05-19T07:33:49.562Z,4.40
2023-05-19T07:36:18.850Z,4.67
2023-05-19T07:38:48.812Z,4.65
2023-05-19T07:41:15.565Z,4.63
2023-05-19T07:43:42.975Z,4.50
2023-05-19T07:46:09.774Z,4.50
2023-05-19T07:48:36.997Z,4.77
2023-05-19T07:51:03.874Z,4.60
2023-05-19T07:53:30.571Z,4.83
2023-05-19T07:56:02.167Z,4.40
2023-05-19T07:58:31.256Z,4.17
2023-05-19T08:00:58.704Z,4.95
2023-05-19T08:03:26.437Z,5.00
2023-05-19T08:05:53.241Z,4.73
2023-05-19T08:08:19.913Z,4.30
2023-05-19T08:10:46.570Z,4.37
2023-05-19T08:13:13.278Z,4.37
2023-05-19T08:15:39.967Z,4.20
2023-05-19T08:18:06.772Z,4.30
2023-05-19T08:20:33.710Z,4.63
2023-05-19T08:23:00.516Z,5.10
2023-05-19T08:25:27.171Z,4.87
2023-05-19T08:27:53.805Z,4.77
2023-05-19T08:30:20.497Z,5.00
2023-05-19T08:32:47.258Z,5.20
2023-05-19T08:35:16.997Z,5.53
2023-05-19T08:37:43.630Z,4.95
2023-05-19T08:40:16.588Z,4.93
2023-05-19T08:42:43.912Z,5.40
2023-05-19T08:45:10.645Z,4.80
2023-05-19T08:47:37.670Z,4.87
2023-05-19T08:50:06.530Z,5.10
2023-05-19T08:52:56.332Z,4.60
2023-05-19T08:55:32.118Z,4.70
2023-05-19T08:58:00.733Z,4.47
2023-05-19T09:00:28.522Z,4.20
2023-05-19T09:03:01.030Z,4.40
2023-05-19T09:05:33.439Z,4.97
2023-05-19T09:08:00.451Z,5.43
2023-05-19T09:10:28.440Z,5.13
2023-05-19T09:12:56.069Z,5.27
2023-05-19T09:15:27.028Z,5.07
2023-05-19T09:18:18.999Z,4.67
2023-05-19T09:20:46.220Z,5.77
2023-05-19T09:23:14.192Z,4.97
2023-05-19T09:25:48.717Z,4.60
2023-05-19T09:28:15.391Z,5.20
2023-05-19T09:30:42.029Z,5.70
2023-05-19T09:33:08.730Z,5.17
2023-05-19T09:35:35.827Z,5.30
2023-05-19T09:38:02.511Z,5.10
2023-05-19T09:40:29.318Z,5.47
2023-05-19T09:42:58.982Z,5.67
2023-05-19T09:45:26.991Z,5.35
2023-05-19T09:47:53.727Z,5.63
2023-05-19T09:50:20.420Z,5.60
2023-05-19T09:52:47.840Z,5.70
2023-05-19T09:55:14.477Z,5.40
2023-05-19T09:57:41.130Z,6.17
2023-05-19T10:00:09.625Z,5.03
2023-05-19T10:02:36.795Z,5.63
2023-05-19T10:05:03.728Z,5.57
2023-05-19T10:07:30.785Z,5.50
2023-05-19T10:09:58.744Z,5.67
2023-05-19T10:12:26.368Z,5.30
2023-05-19T10:14:54.428Z,5.27
2023-05-19T10:17:21.331Z,5.40
2023-05-19T10:19:54.581Z,5.17
2023-05-19T10:22:21.266Z,5.10
2023-05-19T10:24:48.080Z,5.10
2023-05-19T10:27:15.345Z,5.33
2023-05-19T10:29:45.912Z,4.90
2023-05-19T10:32:16.352Z,5.17
2023-05-19T10:34:55.205Z,4.93
2023-05-19T10:37:37.614Z,5.37
2023-05-19T10:40:11.104Z,5.07
2023-05-19T10:42:45.263Z,5.53
2023-05-19T10:45:20.136Z,4.73
2023-05-19T10:47:46.876Z,5.00
2023-05-19T10:50:15.684Z,5.30
2023-05-19T10:52:42.448Z,5.18
2023-05-19T10:55:10.309Z,4.93
2023-05-19T10:57:36.965Z,4.63
2023-05-19T11:00:06.478Z,5.97
2023-05-19T11:02:43.434Z,5.32
2023-05-19T11:05:15.131Z,5.10
2023-05-19T11:07:42.544Z,5.40
2023-05-19T11:10:09.649Z,5.50
2023-05-19T11:12:44.914Z,5.20
2023-05-19T11:15:13.323Z,5.93
2023-05-19T11:17:40.481Z,5.80
2023-05-19T11:20:08.815Z,5.30
2023-05-19T11:22:35.470Z,5.47
2023-05-19T11:25:02.133Z,5.67
2023-05-19T11:27:33.369Z,4.20
2023-05-19T11:30:01.755Z,4.53
2023-05-19T11:32:31.082Z,4.73
2023-05-19T11:34:58.006Z,4.40
2023-05-19T11:37:24.758Z,4.97
2023-05-19T11:39:54.419Z,4.47
2023-05-19T11:42:21.138Z,3.45
2023-05-19T11:44:48.024Z,4.47
2023-05-19T11:47:15.584Z,3.40
2023-05-19T11:49:47.933Z,3.37
2023-05-19T11:52:15.405Z,3.20
2023-05-19T11:54:42.231Z,3.20
2023-05-19T11:57:12.028Z,3.10
2023-05-19T12:02:24.807Z,3.30
2023-05-19T12:04:52.212Z,3.30
2023-05-19T12:07:22.839Z,3.10
2023-05-19T12:09:52.216Z,3.50
2023-05-19T12:12:20.237Z,3.60
2023-05-19T12:14:47.540Z,3.33
2023-05-19T12:17:16.420Z,3.57
2023-05-19T12:19:43.842Z,3.83
2023-05-19T12:22:10.913Z,3.80
2023-05-19T12:24:38.438Z,3.57
2023-05-19T12:27:20.923Z,2.83
2023-05-19T12:29:53.588Z,3.07
2023-05-19T12:32:27.291Z,3.50
2023-05-19T12:34:56.020Z,3.03
2023-05-19T12:37:22.916Z,3.20
2023-05-19T12:39:50.113Z,3.47
2023-05-19T12:42:17.045Z,2.97
2023-05-19T12:44:48.594Z,3.27
2023-05-19T12:47:16.585Z,3.17
2023-05-19T12:50:06.188Z,2.47
2023-05-19T12:52:34.848Z,2.50
2023-05-19T12:55:03.448Z,2.73
2023-05-19T12:57:30.271Z,2.60
2023-05-19T13:00:19.973Z,2.90
2023-05-19T13:05:31.174Z,3.20
2023-05-19T13:08:02.630Z,2.90
2023-05-19T13:10:29.741Z,2.60
2023-05-19T13:12:57.669Z,2.60
2023-05-19T13:15:25.433Z,2.50
2023-05-19T13:17:53.141Z,2.77
2023-05-19T13:20:21.695Z,2.53
2023-05-19T13:22:48.722Z,3.03
2023-05-19T13:25:15.448Z,2.80
2023-05-19T13:27:42.292Z,3.17
2023-05-19T13:30:09.287Z,3.00
2023-05-19T13:32:36.028Z,2.93
2023-05-19T13:35:02.738Z,2.80
2023-05-19T13:37:29.523Z,2.57
2023-05-19T13:39:57.565Z,2.80
2023-05-19T13:42:24.410Z,2.43
2023-05-19T13:44:55.003Z,2.30
2023-05-19T13:47:23.453Z,1.93
2023-05-19T13:49:50.395Z,2.20
2023-05-19T13:52:17.516Z,2.10
2023-05-19T13:54:48.636Z,2.20
2023-05-19T13:57:16.344Z,2.37
2023-05-19T14:00:00.152Z,2.20
2023-05-19T14:02:28.373Z,2.50
2023-05-19T14:04:55.189Z,2.53
2023-05-19T14:07:21.849Z,2.60
2023-05-19T14:09:48.489Z,2.50
2023-05-19T14:12:15.282Z,2.50
2023-05-19T14:14:41.930Z,2.17
2023-05-19T14:17:08.674Z,1.97
2023-05-19T14:19:35.505Z,2.87
2023-05-19T14:22:02.153Z,2.40
2023-05-19T14:24:29.000Z,2.70
2023-05-19T14:26:55.630Z,2.57
2023-05-19T14:29:22.374Z,2.30
2023-05-19T14:31:49.130Z,2.63
2023-05-19T14:34:15.764Z,2.23
2023-05-19T14:36:42.388Z,2.40
2023-05-19T14:39:09.078Z,2.50
2023-05-19T14:41:35.726Z,2.57
2023-05-19T14:44:02.379Z,2.50
2023-05-19T14:46:29.073Z,2.70
2023-05-19T14:48:55.757Z,2.67
2023-05-19T14:51:22.514Z,2.73
2023-05-19T14:53:49.153Z,2.60
2023-05-19T14:56:15.959Z,2.70
2023-05-19T14:58:42.620Z,2.67
2023-05-19T15:01:09.263Z,2.90
2023-05-19T15:03:36.064Z,3.10
2023-05-19T15:06:02.719Z,2.47
2023-05-19T15:08:29.359Z,2.43
2023-05-19T15:10:56.001Z,2.40
2023-05-19T15:13:22.686Z,2.43
2023-05-19T15:15:58.919Z,2.30
2023-05-19T15:18:31.727Z,2.50
2023-05-19T15:20:58.358Z,2.90
2023-05-19T15:23:25.002Z,3.33
2023-05-19T15:25:51.711Z,2.83
2023-05-19T15:28:19.466Z,2.97
2023-05-19T15:30:46.220Z,3.23
2023-05-19T15:33:12.958Z,3.10
2023-05-19T15:35:39.632Z,3.30
2023-05-19T15:38:06.373Z,3.70
2023-05-19T15:40:33.920Z,3.53
2023-05-19T15:43:01.163Z,3.70
2023-05-19T15:45:28.025Z,3.70
2023-05-19T15:47:54.757Z,3.13
2023-05-19T15:50:21.412Z,3.77
2023-05-19T15:52:48.173Z,4.50
2023-05-19T15:55:14.873Z,3.60
2023-05-19T15:57:41.503Z,4.20
2023-05-19T16:00:08.705Z,3.70
2023-05-19T16:02:35.461Z,4.50
2023-05-19T16:05:02.220Z,3.87
2023-05-19T16:07:28.886Z,4.60
2023-05-19T16:09:55.598Z,4.43
2023-05-19T16:12:22.231Z,4.30
2023-05-19T16:14:48.876Z,4.67
2023-05-19T16:17:15.541Z,4.30
2023-05-19T16:19:42.230Z,4.20
2023-05-19T16:22:08.877Z,4.97
2023-05-19T16:24:35.584Z,4.53
2023-05-19T16:27:05.228Z,4.90
2023-05-19T16:29:31.854Z,4.55
2023-05-19T16:32:04.193Z,4.50
2023-05-19T16:36:57.632Z,4.50
2023-05-19T16:39:24.513Z,4.17
2023-05-19T16:41:53.754Z,4.57
2023-05-19T16:44:20.446Z,4.30
2023-05-19T16:46:47.165Z,4.43
2023-05-19T16:49:13.813Z,4.70
2023-05-19T16:51:40.444Z,4.47
2023-05-19T16:54:07.277Z,4.27
2023-05-19T16:56:36.591Z,4.63
2023-05-19T16:59:03.538Z,4.10
2023-05-19T17:01:34.320Z,4.13
2023-05-19T17:04:01.019Z,4.25
2023-05-19T17:06:27.766Z,4.47
2023-05-19T17:08:54.525Z,4.73
2023-05-19T17:11:21.221Z,5.20
2023-05-19T17:13:47.858Z,4.90
2023-05-19T17:16:14.536Z,4.87
2023-05-19T17:18:41.409Z,4.40
2023-05-19T17:21:08.136Z,4.60
2023-05-19T17:23:34.836Z,4.73
2023-05-19T17:26:01.451Z,5.00
2023-05-19T17:28:28.104Z,4.37
2023-05-19T17:30:55.114Z,4.40
2023-05-19T17:33:21.869Z,3.90
2023-05-19T17:35:48.571Z,4.17
2023-05-19T17:38:15.220Z,4.40
2023-05-19T17:40:42.144Z,4.00
2023-05-19T17:43:09.040Z,3.83
2023-05-19T17:45:35.656Z,3.60
2023-05-19T17:48:02.434Z,4.83
2023-05-19T17:50:29.184Z,4.17
2023-05-19T17:52:56.071Z,4.10
2023-05-19T17:55:23.148Z,4.53
2023-05-19T17:57:49.999Z,5.03
2023-05-19T18:00:16.942Z,4.43
2023-05-19T18:02:44.134Z,3.93
2023-05-19T18:05:11.397Z,4.73
2023-05-19T18:07:39.742Z,5.20
2023-05-19T18:10:07.209Z,4.80
2023-05-19T18:12:33.832Z,4.60
2023-05-19T18:15:00.499Z,5.00
2023-05-19T18:17:27.354Z,4.77
2023-05-19T18:19:54.148Z,5.40
2023-05-19T18:22:20.821Z,6.73
2023-05-19T18:24:47.475Z,6.70
2023-05-19T18:27:14.122Z,9.63
2023-05-19T18:29:40.739Z,12.37
2023-05-19T18:32:07.824Z,5.77
2023-05-19T18:34:34.549Z,14.77
2023-05-19T18:37:01.156Z,8.03
2023-05-19T18:39:29.321Z,5.27
2023-05-19T18:41:56.139Z,6.37
2023-05-19T18:44:23.049Z,5.13
2023-05-19T18:46:49.733Z,5.50
2023-05-19T18:49:16.393Z,4.87
2023-05-19T18:51:43.118Z,5.43
2023-05-19T18:54:09.780Z,5.70
2023-05-19T18:56:36.532Z,5.03
2023-05-19T18:59:03.213Z,5.53
2023-05-19T19:01:29.930Z,5.40
2023-05-19T19:03:56.693Z,5.57
2023-05-19T19:06:23.422Z,6.10
2023-05-19T19:08:50.192Z,5.90
2023-05-19T19:11:16.838Z,5.80
2023-05-19T19:13:43.487Z,5.70
2023-05-19T19:16:10.337Z,6.07
2023-05-19T19:18:37.045Z,5.77
2023-05-19T19:21:04.427Z,6.67
2023-05-19T19:23:31.636Z,5.80
2023-05-19T19:25:58.331Z,6.33
2023-05-19T19:28:24.978Z,6.20
2023-05-19T19:30:54.188Z,6.55
2023-05-19T19:33:23.717Z,6.47
2023-05-19T19:35:50.345Z,5.90
2023-05-19T19:38:16.976Z,6.57
2023-05-19T19:40:43.617Z,6.77
2023-05-19T19:43:10.275Z,6.40
2023-05-19T19:45:36.962Z,6.97
2023-05-19T19:48:03.717Z,6.90
2023-05-19T19:50:30.415Z,6.85
2023-05-19T19:52:57.066Z,7.53
2023-05-19T19:55:23.721Z,7.18
2023-05-19T19:57:50.423Z,8.25
2023-05-19T20:00:17.728Z,7.70
2023-05-19T20:03:02.814Z,7.50
2023-05-19T20:05:30.858Z,8.00
2023-05-19T20:07:57.545Z,7.90
2023-05-19T20:10:24.191Z,7.90
2023-05-19T20:12:50.980Z,7.90
2023-05-19T20:15:17.750Z,7.97
2023-05-19T20:17:45.158Z,8.20
2023-05-19T20:20:12.367Z,8.25
2023-05-19T20:22:39.232Z,7.88
2023-05-19T20:25:06.439Z,7.90
2023-05-19T20:27:33.138Z,8.15
2023-05-19T20:29:59.793Z,8.68
2023-05-19T20:32:26.578Z,7.70
2023-05-19T20:34:53.275Z,7.85
2023-05-19T20:37:19.905Z,7.88
2023-05-19T20:39:46.583Z,8.00
2023-05-19T20:42:13.275Z,7.65
2023-05-19T20:44:40.000Z,7.60
2023-05-19T20:47:06.643Z,7.93
2023-05-19T20:49:33.474Z,7.53
2023-05-19T20:52:00.170Z,7.82
2023-05-19T20:54:29.421Z,7.88
2023-05-19T20:56:56.177Z,7.68
2023-05-19T20:59:22.845Z,8.13
2023-05-19T21:01:49.541Z,8.38
2023-05-19T21:04:16.334Z,7.93
2023-05-19T21:06:43.002Z,8.52
2023-05-19T21:09:09.635Z,8.85
2023-05-19T21:11:36.283Z,8.43
2023-05-19T21:14:02.952Z,8.10
2023-05-19T21:16:29.810Z,8.60
2023-05-19T21:18:57.975Z,8.68
2023-05-19T21:21:24.870Z,8.90
2023-05-19T21:23:51.709Z,8.68
2023-05-19T21:26:18.467Z,8.63
2023-05-19T21:28:45.104Z,9.32
2023-05-19T21:31:11.883Z,9.43
2023-05-19T21:33:38.581Z,9.15
2023-05-19T21:36:05.395Z,9.57
2023-05-19T21:38:32.033Z,9.30
2023-05-19T21:40:58.743Z,9.60
2023-05-19T21:43:25.401Z,9.57
2023-05-19T21:45:52.098Z,9.75
2023-05-19T21:48:18.817Z,9.75
2023-05-19T21:50:45.534Z,9.57
2023-05-19T21:53:12.199Z,9.85
2023-05-19T21:55:38.836Z,10.10
2023-05-19T21:58:05.486Z,9.48
2023-05-19T22:00:32.403Z,9.25
2023-05-19T22:02:59.475Z,9.73
2023-05-19T22:05:26.172Z,9.45
2023-05-19T22:07:52.796Z,10.18
2023-05-19T22:10:19.546Z,9.80
2023-05-19T22:12:46.171Z,9.65
2023-05-19T22:15:12.874Z,9.93
2023-05-19T22:17:39.579Z,9.73
2023-05-19T22:20:06.916Z,9.90
2023-05-19T22:22:34.135Z,10.18
2023-05-19T22:25:02.373Z,10.25
2023-05-19T22:27:29.174Z,10.60
2023-05-19T22:29:55.867Z,10.77
2023-05-19T22:32:22.486Z,10.50
2023-05-19T22:34:49.186Z,10.45
2023-05-19T22:37:15.876Z,10.30
2023-05-19T22:39:43.181Z,10.20
2023-05-19T22:42:09.920Z,9.98
2023-05-19T22:44:36.587Z,10.15
2023-05-19T22:47:03.278Z,10.13
2023-05-19T22:49:29.960Z,10.02
2023-05-19T22:51:56.644Z,10.65
2023-05-19T22:54:25.708Z,10.15
2023-05-19T22:56:52.320Z,10.38
2023-05-19T22:59:18.946Z,10.85
2023-05-19T23:01:45.720Z,10.35
2023-05-19T23:04:12.400Z,9.75
2023-05-19T23:06:39.244Z,10.77
2023-05-19T23:09:05.871Z,10.57
2023-05-19T23:11:32.532Z,10.75
2023-05-19T23:13:59.269Z,11.18
2023-05-19T23:16:25.965Z,10.82
2023-05-19T23:18:52.769Z,10.98
2023-05-19T23:21:19.442Z,11.15
2023-05-19T23:23:46.302Z,12.02
2023-05-19T23:26:13.021Z,12.15
2023-05-19T23:28:41.721Z,10.90
2023-05-19T23:31:08.634Z,11.68
2023-05-19T23:33:35.301Z,11.38
2023-05-19T23:36:06.394Z,12.20
2023-05-19T23:38:33.225Z,11.77
2023-05-19T23:40:59.921Z,11.40
2023-05-19T23:43:26.598Z,12.40
2023-05-19T23:45:53.246Z,12.52
2023-05-19T23:48:19.872Z,12.02
2023-05-19T23:50:46.506Z,11.63
2023-05-19T23:53:13.187Z,12.25
2023-05-19T23:55:39.836Z,11.93
2023-05-19T23:58:06.672Z,12.73
